createdAt,value
2022-08-21T00:00:17.309Z,11.00
2022-08-21T00:03:08.624Z,10.90
2022-08-21T00:05:55.563Z,10.90
2022-08-21T00:08:44.093Z,10.90
2022-08-21T00:11:31.215Z,10.80
2022-08-21T00:14:19.386Z,10.80
2022-08-21T00:17:07.725Z,10.80
2022-08-21T00:19:54.815Z,10.70
2022-08-21T00:22:41.829Z,10.70
2022-08-21T00:25:30.225Z,10.70
2022-08-21T00:28:17.757Z,10.70
2022-08-21T00:31:05.386Z,10.60
2022-08-21T00:33:52.632Z,10.60
2022-08-21T00:36:43.779Z,10.50
2022-08-21T00:39:30.739Z,10.50
2022-08-21T00:42:21.238Z,10.50
2022-08-21T00:45:10.170Z,10.50
2022-08-21T00:47:57.380Z,10.40
2022-08-21T00:50:48.595Z,10.40
2022-08-21T00:53:37.750Z,10.40
2022-08-21T00:56:26.159Z,10.30
2022-08-21T00:59:15.233Z,10.30
2022-08-21T01:02:02.198Z,10.30
2022-08-21T01:04:49.919Z,10.30
2022-08-21T01:07:37.239Z,10.30
2022-08-21T01:10:24.741Z,10.20
2022-08-21T01:13:15.415Z,10.20
2022-08-21T01:16:07.056Z,10.20
2022-08-21T01:18:54.513Z,10.10
2022-08-21T01:21:43.967Z,10.10
2022-08-21T01:24:32.596Z,10.10
2022-08-21T01:27:19.920Z,10.00
2022-08-21T01:30:12.867Z,10.10
2022-08-21T01:33:00.447Z,10.00
2022-08-21T01:35:47.930Z,10.00
2022-08-21T01:38:36.784Z,10.00
2022-08-21T01:41:24.181Z,10.00
2022-08-21T01:44:11.129Z,9.90
2022-08-21T01:47:00.079Z,10.00
2022-08-21T01:49:47.304Z,10.00
2022-08-21T01:52:34.636Z,10.00
2022-08-21T01:55:24.448Z,10.00
2022-08-21T01:58:11.894Z,10.00
2022-08-21T02:00:59.601Z,10.10
2022-08-21T02:03:46.526Z,10.10
2022-08-21T02:06:33.459Z,10.20
2022-08-21T02:09:20.505Z,10.20
2022-08-21T02:12:10.104Z,10.30
2022-08-21T02:14:57.340Z,10.30
2022-08-21T02:17:46.485Z,10.40
2022-08-21T02:20:37.050Z,10.40
2022-08-21T02:23:24.817Z,10.50
2022-08-21T02:26:15.529Z,10.50
2022-08-21T02:29:04.775Z,10.50
2022-08-21T02:31:52.077Z,10.50
2022-08-21T02:34:39.241Z,10.50
2022-08-21T02:37:26.753Z,10.40
2022-08-21T02:40:15.321Z,10.40
2022-08-21T02:43:03.901Z,10.30
2022-08-21T02:45:52.962Z,10.20
2022-08-21T02:48:40.714Z,10.20
2022-08-21T02:51:28.239Z,10.10
2022-08-21T02:54:15.576Z,10.10
2022-08-21T02:57:02.703Z,10.00
2022-08-21T02:59:49.664Z,10.00
2022-08-21T03:02:37.955Z,9.90
2022-08-21T03:05:25.850Z,9.80
2022-08-21T03:08:15.027Z,9.80
2022-08-21T03:11:02.359Z,9.80
2022-08-21T03:13:49.414Z,9.70
2022-08-21T03:16:36.485Z,9.70
2022-08-21T03:19:24.864Z,9.70
2022-08-21T03:22:11.895Z,9.70
2022-08-21T03:24:59.690Z,9.70
2022-08-21T03:27:46.962Z,9.70
2022-08-21T03:30:35.711Z,9.70
2022-08-21T03:33:23.313Z,9.80
2022-08-21T03:36:14.287Z,9.80
2022-08-21T03:39:01.369Z,9.70
2022-08-21T03:41:49.300Z,9.80
2022-08-21T03:44:37.145Z,9.80
2022-08-21T03:47:24.628Z,9.80
2022-08-21T03:50:12.161Z,9.80
2022-08-21T03:53:01.179Z,9.80
2022-08-21T03:55:49.772Z,9.80
2022-08-21T03:58:36.895Z,9.90
2022-08-21T04:01:24.213Z,9.90
2022-08-21T04:04:11.245Z,9.90
2022-08-21T04:07:01.599Z,10.00
2022-08-21T04:09:50.194Z,10.00
2022-08-21T04:12:37.087Z,10.00
2022-08-21T04:15:25.324Z,10.10
2022-08-21T04:18:12.669Z,10.10
2022-08-21T04:21:01.921Z,10.10
2022-08-21T04:23:49.296Z,10.10
2022-08-21T04:26:37.989Z,10.10
2022-08-21T04:29:24.740Z,10.10
2022-08-21T04:32:11.751Z,10.10
2022-08-21T04:35:05.045Z,10.10
2022-08-21T04:37:52.332Z,10.00
2022-08-21T04:40:39.425Z,10.00
2022-08-21T04:43:29.495Z,10.00
2022-08-21T04:46:19.471Z,10.10
2022-08-21T04:49:06.947Z,10.10
2022-08-21T04:51:54.214Z,10.10
2022-08-21T04:54:42.060Z,10.10
2022-08-21T04:57:39.756Z,10.10
2022-08-21T05:00:38.007Z,10.20
2022-08-21T05:03:26.339Z,10.20
2022-08-21T05:06:15.163Z,10.20
2022-08-21T05:09:02.828Z,10.20
2022-08-21T05:11:51.040Z,10.20
2022-08-21T05:14:38.350Z,10.30
2022-08-21T05:17:26.403Z,10.40
2022-08-21T05:20:15.403Z,10.40
2022-08-21T05:23:02.879Z,10.50
2022-08-21T05:25:50.307Z,10.50
2022-08-21T05:28:37.031Z,10.60
2022-08-21T05:31:24.374Z,10.60
2022-08-21T05:34:13.110Z,10.70
2022-08-21T05:37:07.482Z,10.70
2022-08-21T05:40:04.733Z,10.70
2022-08-21T05:43:02.834Z,10.80
2022-08-21T05:45:50.224Z,10.80
2022-08-21T05:48:38.659Z,10.90
2022-08-21T05:51:27.127Z,11.00
2022-08-21T05:54:13.991Z,11.00
2022-08-21T05:57:01.019Z,11.10
2022-08-21T05:59:47.986Z,11.20
2022-08-21T06:02:35.290Z,11.20
2022-08-21T06:05:36.835Z,11.40
2022-08-21T06:08:26.571Z,11.50
2022-08-21T06:11:14.129Z,11.70
2022-08-21T06:14:01.496Z,11.90
2022-08-21T06:16:50.085Z,12.00
2022-08-21T06:19:37.260Z,12.10
2022-08-21T06:22:24.891Z,12.10
2022-08-21T06:25:13.474Z,12.30
2022-08-21T06:28:04.680Z,12.40
2022-08-21T06:30:51.751Z,12.70
2022-08-21T06:33:38.529Z,12.90
2022-08-21T06:36:25.786Z,12.90
2022-08-21T06:39:16.406Z,12.90
2022-08-21T06:42:16.969Z,13.10
2022-08-21T06:45:04.403Z,14.10
2022-08-21T06:47:51.838Z,14.80
2022-08-21T06:50:39.419Z,14.80
2022-08-21T06:53:28.564Z,14.70
2022-08-21T06:56:15.732Z,15.50
2022-08-21T06:59:04.090Z,16.00
2022-08-21T07:01:51.582Z,15.70
2022-08-21T07:04:38.905Z,15.50
2022-08-21T07:07:31.856Z,15.30
2022-08-21T07:10:21.777Z,15.30
2022-08-21T07:13:09.609Z,15.20
2022-08-21T07:16:01.722Z,15.00
2022-08-21T07:18:51.985Z,15.40
2022-08-21T07:21:39.170Z,16.10
2022-08-21T07:24:26.262Z,16.80
2022-08-21T07:27:13.496Z,17.70
2022-08-21T07:30:00.869Z,18.20
2022-08-21T07:32:50.920Z,18.40
2022-08-21T07:35:37.951Z,18.60
2022-08-21T07:38:24.939Z,19.00
2022-08-21T07:41:17.132Z,18.90
2022-08-21T07:44:04.302Z,18.70
2022-08-21T07:46:53.895Z,19.10
2022-08-21T07:49:42.603Z,19.70
2022-08-21T07:52:31.285Z,20.50
2022-08-21T07:55:22.543Z,21.30
2022-08-21T07:58:09.625Z,21.90
2022-08-21T08:00:56.766Z,22.60
2022-08-21T08:03:44.153Z,23.00
2022-08-21T08:06:32.978Z,22.60
2022-08-21T08:09:20.381Z,23.50
2022-08-21T08:12:07.871Z,24.10
2022-08-21T08:14:55.421Z,23.80
2022-08-21T08:17:42.701Z,23.60
2022-08-21T08:20:30.368Z,23.50
2022-08-21T08:23:19.134Z,22.50
2022-08-21T08:26:06.669Z,23.00
2022-08-21T08:28:54.220Z,23.20
2022-08-21T08:31:41.182Z,23.00
2022-08-21T08:34:28.068Z,22.90
2022-08-21T08:37:14.780Z,22.10
2022-08-21T08:40:05.437Z,22.00
2022-08-21T08:42:52.825Z,22.60
2022-08-21T08:45:43.459Z,23.40
2022-08-21T08:48:43.126Z,23.10
2022-08-21T08:51:40.192Z,23.80
2022-08-21T08:54:32.504Z,24.90
2022-08-21T08:57:25.610Z,26.40
2022-08-21T09:00:16.213Z,26.80
2022-08-21T09:03:05.539Z,28.30
2022-08-21T09:05:57.998Z,28.00
2022-08-21T09:08:52.725Z,28.40
2022-08-21T09:11:47.924Z,28.10
2022-08-21T09:14:49.398Z,28.00
2022-08-21T09:17:46.302Z,27.40
2022-08-21T09:20:40.723Z,27.60
2022-08-21T09:23:40.297Z,28.20
2022-08-21T09:26:32.016Z,27.30
2022-08-21T09:29:22.585Z,26.00
2022-08-21T09:32:19.337Z,26.30
2022-08-21T09:35:10.414Z,26.20
2022-08-21T09:38:03.094Z,25.90
2022-08-21T09:41:01.163Z,25.20
2022-08-21T09:43:55.406Z,25.00
2022-08-21T09:46:52.794Z,24.60
2022-08-21T09:49:44.813Z,24.60
2022-08-21T09:52:32.006Z,25.20
2022-08-21T09:55:42.773Z,25.70
2022-08-21T09:58:35.110Z,26.00
2022-08-21T10:01:25.713Z,26.00
2022-08-21T10:04:18.812Z,25.50
2022-08-21T10:07:10.955Z,24.80
2022-08-21T10:10:03.184Z,25.20
2022-08-21T10:12:57.019Z,25.90
2022-08-21T10:15:56.906Z,26.20
2022-08-21T10:18:51.535Z,26.00
2022-08-21T10:21:43.016Z,26.60
2022-08-21T10:24:35.605Z,26.00
2022-08-21T10:27:35.799Z,25.40
2022-08-21T10:30:31.776Z,25.40
2022-08-21T10:33:32.244Z,27.20
2022-08-21T10:36:27.530Z,28.60
2022-08-21T10:39:35.113Z,27.30
2022-08-21T10:42:37.818Z,27.80
2022-08-21T10:45:39.016Z,28.10
2022-08-21T10:48:34.328Z,28.70
2022-08-21T10:51:30.429Z,27.50
2022-08-21T10:54:24.790Z,25.90
2022-08-21T10:57:26.015Z,25.20
2022-08-21T11:00:23.084Z,25.00
2022-08-21T11:03:15.625Z,25.00
2022-08-21T11:06:07.780Z,25.50
2022-08-21T11:09:00.597Z,25.10
2022-08-21T11:11:59.333Z,24.00
2022-08-21T11:15:04.386Z,23.70
2022-08-21T11:18:01.506Z,23.80
2022-08-21T11:20:53.968Z,24.20
2022-08-21T11:23:47.423Z,24.40
2022-08-21T11:26:41.108Z,24.50
2022-08-21T11:29:31.844Z,25.90
2022-08-21T11:33:03.920Z,26.30
2022-08-21T11:36:05.040Z,25.80
2022-08-21T11:38:59.399Z,25.70
2022-08-21T11:41:56.348Z,25.30
2022-08-21T11:44:53.224Z,25.30
2022-08-21T11:47:56.745Z,25.30
2022-08-21T11:50:47.213Z,25.90
2022-08-21T11:53:40.944Z,26.80
2022-08-21T11:56:34.135Z,27.90
2022-08-21T11:59:28.801Z,26.90
2022-08-21T12:02:18.716Z,26.80
2022-08-21T12:05:09.376Z,26.50
2022-08-21T12:08:07.584Z,26.50
2022-08-21T12:11:03.384Z,28.00
2022-08-21T12:13:59.859Z,28.50
2022-08-21T12:16:49.904Z,29.10
2022-08-21T12:19:37.798Z,29.10
2022-08-21T12:22:37.354Z,28.60
2022-08-21T12:25:26.733Z,27.80
2022-08-21T12:28:17.454Z,27.40
2022-08-21T12:31:04.959Z,26.80
2022-08-21T12:34:00.545Z,26.30
2022-08-21T12:36:53.057Z,26.00
2022-08-21T12:39:45.940Z,25.60
2022-08-21T12:42:42.361Z,25.80
2022-08-21T12:45:33.151Z,26.40
2022-08-21T12:48:24.838Z,27.10
2022-08-21T12:51:15.294Z,26.80
2022-08-21T12:54:02.857Z,26.10
2022-08-21T12:56:58.793Z,25.30
2022-08-21T12:59:47.437Z,25.40
2022-08-21T13:02:40.601Z,25.90
2022-08-21T13:05:34.188Z,26.20
2022-08-21T13:08:23.719Z,26.50
2022-08-21T13:11:15.153Z,27.00
2022-08-21T13:14:04.741Z,27.50
2022-08-21T13:16:57.125Z,28.10
2022-08-21T13:19:44.508Z,28.00
2022-08-21T13:22:34.246Z,27.60
2022-08-21T13:25:27.001Z,27.00
2022-08-21T13:28:15.977Z,27.40
2022-08-21T13:31:03.438Z,27.40
2022-08-21T13:33:52.567Z,27.80
2022-08-21T13:36:43.341Z,28.20
2022-08-21T13:39:30.738Z,28.30
2022-08-21T13:42:17.795Z,27.70
2022-08-21T13:45:05.129Z,27.60
2022-08-21T13:47:54.022Z,27.30
2022-08-21T13:50:44.897Z,27.20
2022-08-21T13:53:34.861Z,26.90
2022-08-21T13:56:26.648Z,26.20
2022-08-21T13:59:26.193Z,25.80
2022-08-21T14:02:25.559Z,25.50
2022-08-21T14:05:19.183Z,25.00
2022-08-21T14:08:12.798Z,25.10
2022-08-21T14:11:01.823Z,25.80
2022-08-21T14:13:51.508Z,26.40
2022-08-21T14:16:47.237Z,26.90
2022-08-21T14:19:44.490Z,26.70
2022-08-21T14:22:48.942Z,26.90
2022-08-21T14:25:46.889Z,26.40
2022-08-21T14:28:35.655Z,26.10
2022-08-21T14:31:23.643Z,26.00
2022-08-21T14:34:19.373Z,26.30
2022-08-21T14:37:07.317Z,26.50
2022-08-21T14:39:54.989Z,26.20
2022-08-21T14:42:44.433Z,26.50
2022-08-21T14:45:33.489Z,26.60
2022-08-21T14:48:20.786Z,26.20
2022-08-21T14:51:08.369Z,26.00
2022-08-21T14:53:55.462Z,26.20
2022-08-21T14:56:43.040Z,26.10
2022-08-21T14:59:37.063Z,26.20
2022-08-21T15:02:24.461Z,26.20
2022-08-21T15:05:12.019Z,26.30
2022-08-21T15:07:59.180Z,26.30
2022-08-21T15:11:10.650Z,26.00
2022-08-21T15:13:58.779Z,25.80
2022-08-21T15:16:47.629Z,25.80
2022-08-21T15:19:35.075Z,25.60
2022-08-21T15:22:26.858Z,25.40
2022-08-21T15:25:15.447Z,25.60
2022-08-21T15:28:03.036Z,25.80
2022-08-21T15:30:53.219Z,26.00
2022-08-21T15:33:41.865Z,26.00
2022-08-21T15:36:29.208Z,26.00
2022-08-21T15:39:16.683Z,25.60
2022-08-21T15:42:10.665Z,25.70
2022-08-21T15:44:59.211Z,26.10
2022-08-21T15:47:47.943Z,25.90
2022-08-21T15:50:37.046Z,25.70
2022-08-21T15:53:24.030Z,25.70
2022-08-21T15:56:35.551Z,25.80
2022-08-21T15:59:24.471Z,25.80
2022-08-21T16:02:16.023Z,25.80
2022-08-21T16:05:03.416Z,25.80
2022-08-21T16:07:52.980Z,25.90
2022-08-21T16:10:41.851Z,26.00
2022-08-21T16:13:35.502Z,26.00
2022-08-21T16:16:25.054Z,25.90
2022-08-21T16:19:14.953Z,26.00
2022-08-21T16:22:02.068Z,25.90
2022-08-21T16:24:50.714Z,25.90
2022-08-21T16:27:38.359Z,25.60
2022-08-21T16:30:28.406Z,25.50
2022-08-21T16:33:24.970Z,25.30
2022-08-21T16:36:12.500Z,24.90
2022-08-21T16:39:00.558Z,24.80
2022-08-21T16:41:57.030Z,24.40
2022-08-21T16:44:59.913Z,24.30
2022-08-21T16:47:53.915Z,24.20
2022-08-21T16:50:52.947Z,24.10
2022-08-21T16:54:25.938Z,24.00
2022-08-21T16:57:21.147Z,23.90
2022-08-21T17:00:11.855Z,23.90
2022-08-21T17:02:59.393Z,23.80
2022-08-21T17:05:46.750Z,23.80
2022-08-21T17:08:35.415Z,23.50
2022-08-21T17:11:37.173Z,23.50
2022-08-21T17:14:27.038Z,23.40
2022-08-21T17:17:16.274Z,23.30
2022-08-21T17:20:04.388Z,23.10
2022-08-21T17:22:51.653Z,22.90
2022-08-21T17:25:42.413Z,22.80
2022-08-21T17:28:32.591Z,22.60
2022-08-21T17:31:33.957Z,22.50
2022-08-21T17:34:31.153Z,22.40
2022-08-21T17:37:18.950Z,22.30
2022-08-21T17:40:08.625Z,22.00
2022-08-21T17:42:55.843Z,21.80
2022-08-21T17:45:43.323Z,21.60
2022-08-21T17:48:31.668Z,21.30
2022-08-21T17:51:18.803Z,21.20
2022-08-21T17:54:08.048Z,21.10
2022-08-21T17:56:57.008Z,20.90
2022-08-21T17:59:44.887Z,20.80
2022-08-21T18:02:32.147Z,20.70
2022-08-21T18:05:21.607Z,20.50
2022-08-21T18:08:09.094Z,20.40
2022-08-21T18:10:58.338Z,20.20
2022-08-21T18:13:45.639Z,20.10
2022-08-21T18:16:34.382Z,20.00
2022-08-21T18:19:25.348Z,19.80
2022-08-21T18:22:13.990Z,19.70
2022-08-21T18:25:01.188Z,19.60
2022-08-21T18:27:49.372Z,19.40
2022-08-21T18:30:41.299Z,19.20
2022-08-21T18:33:28.282Z,19.10
2022-08-21T18:36:15.570Z,18.90
2022-08-21T18:39:34.492Z,18.80
2022-08-21T18:42:14.683Z,18.50
2022-08-21T18:45:03.570Z,18.30
2022-08-21T18:47:53.760Z,18.30
2022-08-21T18:50:44.134Z,18.20
2022-08-21T18:53:36.415Z,18.00
2022-08-21T18:56:25.051Z,17.90
2022-08-21T18:59:13.374Z,17.70
2022-08-21T19:02:02.820Z,17.60
2022-08-21T19:04:49.844Z,17.60
2022-08-21T19:07:37.282Z,17.50
2022-08-21T19:10:28.470Z,17.50
2022-08-21T19:13:21.067Z,17.40
2022-08-21T19:16:09.724Z,17.20
2022-08-21T19:18:58.182Z,17.10
2022-08-21T19:21:49.340Z,17.00
2022-08-21T19:24:36.615Z,16.90
2022-08-21T19:27:23.997Z,16.80
2022-08-21T19:30:13.509Z,16.70
2022-08-21T19:33:00.994Z,16.60
2022-08-21T19:35:52.522Z,16.50
2022-08-21T19:38:40.515Z,16.40
2022-08-21T19:41:31.604Z,16.30
2022-08-21T19:44:22.243Z,16.30
2022-08-21T19:47:18.936Z,16.20
2022-08-21T19:50:17.909Z,16.10
2022-08-21T19:53:12.187Z,16.00
2022-08-21T19:55:59.767Z,15.90
2022-08-21T19:58:48.087Z,15.90
2022-08-21T20:01:39.924Z,15.70
2022-08-21T20:04:31.731Z,15.60
2022-08-21T20:07:18.664Z,15.60
2022-08-21T20:10:14.119Z,15.50
2022-08-21T20:13:01.490Z,15.40
2022-08-21T20:15:50.458Z,15.30
2022-08-21T20:18:38.626Z,15.20
2022-08-21T20:21:30.546Z,15.20
2022-08-21T20:24:30.338Z,15.10
2022-08-21T20:27:22.809Z,15.00
2022-08-21T20:30:11.779Z,15.00
2022-08-21T20:33:00.115Z,14.90
2022-08-21T20:35:50.085Z,14.90
2022-08-21T20:38:38.747Z,14.70
2022-08-21T20:41:30.749Z,14.70
2022-08-21T20:44:34.798Z,14.70
2022-08-21T20:47:22.477Z,14.60
2022-08-21T20:50:14.754Z,14.50
2022-08-21T20:53:07.197Z,14.40
2022-08-21T20:55:59.434Z,14.40
2022-08-21T20:58:54.751Z,14.30
2022-08-21T21:01:44.690Z,14.20
2022-08-21T21:04:38.579Z,14.20
2022-08-21T21:07:30.977Z,14.10
2022-08-21T21:10:29.428Z,14.00
2022-08-21T21:13:24.051Z,13.90
2022-08-21T21:16:19.008Z,13.90
2022-08-21T21:19:11.030Z,13.90
2022-08-21T21:22:04.075Z,13.80
2022-08-21T21:24:56.430Z,13.70
2022-08-21T21:27:49.170Z,13.60
2022-08-21T21:30:41.505Z,13.60
2022-08-21T21:33:33.423Z,13.50
2022-08-21T21:36:29.711Z,13.60
2022-08-21T21:39:36.037Z,13.60
2022-08-21T21:42:32.724Z,13.70
2022-08-21T21:45:27.975Z,13.60
2022-08-21T21:48:24.038Z,13.60
2022-08-21T21:51:22.113Z,13.60
2022-08-21T21:54:26.495Z,13.60
2022-08-21T21:57:32.385Z,13.60
2022-08-21T22:03:39.255Z,13.70
2022-08-21T22:06:35.578Z,13.60
2022-08-21T22:09:39.584Z,13.50
2022-08-21T22:12:42.118Z,13.50
2022-08-21T22:15:36.413Z,13.60
2022-08-21T22:18:27.561Z,13.60
2022-08-21T22:21:23.960Z,13.60
2022-08-21T22:24:16.718Z,13.60
2022-08-21T22:27:09.733Z,13.60
2022-08-21T22:30:01.288Z,13.50
2022-08-21T22:32:50.627Z,13.60
2022-08-21T22:35:37.689Z,13.60
2022-08-21T22:38:36.165Z,13.60
2022-08-21T22:41:31.042Z,13.60
2022-08-21T22:44:24.198Z,13.60
2022-08-21T22:47:22.463Z,13.50
2022-08-21T22:50:21.631Z,13.50
2022-08-21T22:53:11.688Z,13.50
2022-08-21T22:56:06.439Z,13.40
2022-08-21T22:58:57.841Z,13.40
2022-08-21T23:01:46.461Z,13.40
2022-08-21T23:04:48.900Z,13.40
2022-08-21T23:07:42.932Z,13.40
2022-08-21T23:10:32.718Z,13.40
2022-08-21T23:13:21.125Z,13.40
2022-08-21T23:16:19.068Z,13.30
2022-08-21T23:19:13.295Z,13.30
2022-08-21T23:22:09.510Z,13.30
2022-08-21T23:25:13.254Z,13.30
2022-08-21T23:28:11.605Z,13.30
2022-08-21T23:31:07.899Z,13.20
2022-08-21T23:34:21.190Z,13.20
2022-08-21T23:37:48.290Z,13.20
2022-08-21T23:40:51.626Z,13.30
2022-08-21T23:43:52.049Z,13.30
2022-08-21T23:46:53.838Z,13.20
2022-08-21T23:49:54.017Z,13.30
2022-08-21T23:52:53.787Z,13.30
2022-08-21T23:55:55.114Z,13.40
2022-08-21T23:58:51.369Z,13.30
